sensor_id;sensor_type;location;lat;lon;timestamp;temperature;humidity
51878;SHT31;37911;51.526;11.536;2022-12-19T00:01:50;-3.03;79.77
51878;SHT31;37911;51.526;11.536;2022-12-19T00:04:53;-3.05;79.87
51878;SHT31;37911;51.526;11.536;2022-12-19T00:07:56;-3.02;79.61
51878;SHT31;37911;51.526;11.536;2022-12-19T00:11:01;-2.93;79.26
51878;SHT31;37911;51.526;11.536;2022-12-19T00:14:05;-2.89;79.33
51878;SHT31;37911;51.526;11.536;2022-12-19T00:17:11;-2.97;79.89
51878;SHT31;37911;51.526;11.536;2022-12-19T00:20:15;-2.95;80.24
51878;SHT31;37911;51.526;11.536;2022-12-19T00:23:18;-2.93;80.02
51878;SHT31;37911;51.526;11.536;2022-12-19T00:26:23;-2.93;80.19
51878;SHT31;37911;51.526;11.536;2022-12-19T00:29:27;-2.89;79.84
51878;SHT31;37911;51.526;11.536;2022-12-19T00:32:33;-2.91;80.05
51878;SHT31;37911;51.526;11.536;2022-12-19T00:35:36;-2.86;79.73
51878;SHT31;37911;51.526;11.536;2022-12-19T00:38:40;-2.85;79.57
51878;SHT31;37911;51.526;11.536;2022-12-19T00:41:43;-2.86;79.88
51878;SHT31;37911;51.526;11.536;2022-12-19T00:44:46;-2.76;79.35
51878;SHT31;37911;51.526;11.536;2022-12-19T00:47:52;-2.76;78.99
51878;SHT31;37911;51.526;11.536;2022-12-19T00:50:58;-2.71;79.05
51878;SHT31;37911;51.526;11.536;2022-12-19T00:54:02;-2.69;78.93
51878;SHT31;37911;51.526;11.536;2022-12-19T00:57:06;-2.65;78.60
51878;SHT31;37911;51.526;11.536;2022-12-19T01:00:11;-2.60;78.37
51878;SHT31;37911;51.526;11.536;2022-12-19T01:03:17;-2.55;77.83
51878;SHT31;37911;51.526;11.536;2022-12-19T01:06:20;-2.47;77.36
51878;SHT31;37911;51.526;11.536;2022-12-19T01:09:24;-2.51;77.93
51878;SHT31;37911;51.526;11.536;2022-12-19T01:12:27;-2.50;77.62
51878;SHT31;37911;51.526;11.536;2022-12-19T01:15:43;-2.47;77.63
51878;SHT31;37911;51.526;11.536;2022-12-19T01:18:49;-2.45;77.67
51878;SHT31;37911;51.526;11.536;2022-12-19T01:21:53;-2.31;76.98
51878;SHT31;37911;51.526;11.536;2022-12-19T01:24:56;-2.33;77.46
51878;SHT31;37911;51.526;11.536;2022-12-19T01:28:00;-2.37;78.33
51878;SHT31;37911;51.526;11.536;2022-12-19T01:31:06;-2.42;79.78
51878;SHT31;37911;51.526;11.536;2022-12-19T01:34:12;-2.48;80.58
51878;SHT31;37911;51.526;11.536;2022-12-19T01:37:16;-2.52;80.73
51878;SHT31;37911;51.526;11.536;2022-12-19T01:40:20;-2.55;81.24
51878;SHT31;37911;51.526;11.536;2022-12-19T01:43:27;-2.60;81.43
51878;SHT31;37911;51.526;11.536;2022-12-19T01:46:34;-2.60;81.43
51878;SHT31;37911;51.526;11.536;2022-12-19T01:49:40;-2.60;81.82
51878;SHT31;37911;51.526;11.536;2022-12-19T01:52:45;-2.61;82.07
51878;SHT31;37911;51.526;11.536;2022-12-19T01:55:49;-2.62;82.30
51878;SHT31;37911;51.526;11.536;2022-12-19T01:58:54;-2.61;81.50
51878;SHT31;37911;51.526;11.536;2022-12-19T02:02:04;-2.65;81.48
51878;SHT31;37911;51.526;11.536;2022-12-19T02:05:14;-2.68;81.66
51878;SHT31;37911;51.526;11.536;2022-12-19T02:08:18;-2.69;81.85
51878;SHT31;37911;51.526;11.536;2022-12-19T02:11:22;-2.69;82.04
51878;SHT31;37911;51.526;11.536;2022-12-19T02:14:26;-2.71;82.24
51878;SHT31;37911;51.526;11.536;2022-12-19T02:17:37;-2.66;81.61
51878;SHT31;37911;51.526;11.536;2022-12-19T02:21:08;-2.61;81.00
51878;SHT31;37911;51.526;11.536;2022-12-19T02:24:47;-2.61;81.04
51878;SHT31;37911;51.526;11.536;2022-12-19T02:28:09;-2.62;81.82
51878;SHT31;37911;51.526;11.536;2022-12-19T02:31:21;-2.62;81.98
51878;SHT31;37911;51.526;11.536;2022-12-19T02:34:32;-2.65;81.72
51878;SHT31;37911;51.526;11.536;2022-12-19T02:37:43;-2.55;80.13
51878;SHT31;37911;51.526;11.536;2022-12-19T02:40:52;-2.45;78.17
51878;SHT31;37911;51.526;11.536;2022-12-19T02:43:58;-2.44;78.48
51878;SHT31;37911;51.526;11.536;2022-12-19T02:47:07;-2.42;78.53
51878;SHT31;37911;51.526;11.536;2022-12-19T02:50:12;-2.45;78.70
51878;SHT31;37911;51.526;11.536;2022-12-19T02:53:16;-2.42;78.84
51878;SHT31;37911;51.526;11.536;2022-12-19T02:56:41;-2.38;78.69
51878;SHT31;37911;51.526;11.536;2022-12-19T02:59:56;-2.24;77.70
51878;SHT31;37911;51.526;11.536;2022-12-19T03:03:10;-2.17;77.41
51878;SHT31;37911;51.526;11.536;2022-12-19T03:06:21;-2.11;77.31
51878;SHT31;37911;51.526;11.536;2022-12-19T03:09:34;-2.13;77.48
51878;SHT31;37911;51.526;11.536;2022-12-19T03:12:46;-2.17;78.07
51878;SHT31;37911;51.526;11.536;2022-12-19T03:15:52;-2.11;78.18
51878;SHT31;37911;51.526;11.536;2022-12-19T03:18:58;-2.15;78.62
51878;SHT31;37911;51.526;11.536;2022-12-19T03:22:02;-2.08;77.62
51878;SHT31;37911;51.526;11.536;2022-12-19T03:25:06;-2.06;77.22
51878;SHT31;37911;51.526;11.536;2022-12-19T03:28:11;-2.04;77.88
51878;SHT31;37911;51.526;11.536;2022-12-19T03:31:17;-2.08;78.02
51878;SHT31;37911;51.526;11.536;2022-12-19T03:34:27;-2.00;77.24
51878;SHT31;37911;51.526;11.536;2022-12-19T03:37:35;-1.89;76.04
51878;SHT31;37911;51.526;11.536;2022-12-19T03:40:42;-1.80;76.15
51878;SHT31;37911;51.526;11.536;2022-12-19T03:43:47;-1.79;75.91
51878;SHT31;37911;51.526;11.536;2022-12-19T03:46:57;-1.79;76.39
51878;SHT31;37911;51.526;11.536;2022-12-19T03:50:06;-1.82;76.66
51878;SHT31;37911;51.526;11.536;2022-12-19T03:53:17;-1.76;76.03
51878;SHT31;37911;51.526;11.536;2022-12-19T03:56:29;-1.77;75.95
51878;SHT31;37911;51.526;11.536;2022-12-19T03:59:38;-1.82;76.15
51878;SHT31;37911;51.526;11.536;2022-12-19T04:02:48;-1.90;76.25
51878;SHT31;37911;51.526;11.536;2022-12-19T04:05:56;-1.87;75.79
51878;SHT31;37911;51.526;11.536;2022-12-19T04:09:01;-1.93;76.28
51878;SHT31;37911;51.526;11.536;2022-12-19T04:12:08;-1.91;75.73
51878;SHT31;37911;51.526;11.536;2022-12-19T04:15:17;-1.97;76.17
51878;SHT31;37911;51.526;11.536;2022-12-19T04:18:22;-1.97;76.48
51878;SHT31;37911;51.526;11.536;2022-12-19T04:21:31;-1.96;76.15
51878;SHT31;37911;51.526;11.536;2022-12-19T04:24:37;-2.00;76.73
51878;SHT31;37911;51.526;11.536;2022-12-19T04:27:50;-1.98;76.85
51878;SHT31;37911;51.526;11.536;2022-12-19T04:30:54;-2.01;76.84
51878;SHT31;37911;51.526;11.536;2022-12-19T04:33:57;-1.91;77.04
51878;SHT31;37911;51.526;11.536;2022-12-19T04:37:03;-1.93;76.96
51878;SHT31;37911;51.526;11.536;2022-12-19T04:40:08;-1.94;76.61
51878;SHT31;37911;51.526;11.536;2022-12-19T04:43:12;-1.98;76.80
51878;SHT31;37911;51.526;11.536;2022-12-19T04:46:15;-1.97;77.25
51878;SHT31;37911;51.526;11.536;2022-12-19T04:49:18;-2.00;77.60
51878;SHT31;37911;51.526;11.536;2022-12-19T04:52:24;-2.03;77.89
51878;SHT31;37911;51.526;11.536;2022-12-19T04:55:28;-2.03;77.86
51878;SHT31;37911;51.526;11.536;2022-12-19T04:58:32;-2.03;78.12
51878;SHT31;37911;51.526;11.536;2022-12-19T05:01:35;-1.98;78.09
51878;SHT31;37911;51.526;11.536;2022-12-19T05:04:39;-1.96;78.22
51878;SHT31;37911;51.526;11.536;2022-12-19T05:07:45;-1.94;78.14
51878;SHT31;37911;51.526;11.536;2022-12-19T05:10:49;-1.94;78.34
51878;SHT31;37911;51.526;11.536;2022-12-19T05:13:52;-1.91;77.80
51878;SHT31;37911;51.526;11.536;2022-12-19T05:16:55;-1.91;77.99
51878;SHT31;37911;51.526;11.536;2022-12-19T05:19:59;-1.91;78.20
51878;SHT31;37911;51.526;11.536;2022-12-19T05:23:05;-1.89;78.39
51878;SHT31;37911;51.526;11.536;2022-12-19T05:26:10;-1.86;78.51
51878;SHT31;37911;51.526;11.536;2022-12-19T05:29:14;-1.80;78.43
51878;SHT31;37911;51.526;11.536;2022-12-19T05:32:18;-1.82;78.39
51878;SHT31;37911;51.526;11.536;2022-12-19T05:35:21;-1.77;78.19
51878;SHT31;37911;51.526;11.536;2022-12-19T05:38:28;-1.75;78.70
51878;SHT31;37911;51.526;11.536;2022-12-19T05:41:32;-1.76;78.82
51878;SHT31;37911;51.526;11.536;2022-12-19T05:44:35;-1.73;78.69
51878;SHT31;37911;51.526;11.536;2022-12-19T05:47:38;-1.73;79.25
51878;SHT31;37911;51.526;11.536;2022-12-19T05:50:46;-1.72;79.33
51878;SHT31;37911;51.526;11.536;2022-12-19T05:53:52;-1.69;79.73
51878;SHT31;37911;51.526;11.536;2022-12-19T05:56:56;-1.59;79.64
51878;SHT31;37911;51.526;11.536;2022-12-19T05:59:59;-1.65;80.05
51878;SHT31;37911;51.526;11.536;2022-12-19T06:03:12;-1.69;80.85
51878;SHT31;37911;51.526;11.536;2022-12-19T06:06:17;-1.72;81.13
51878;SHT31;37911;51.526;11.536;2022-12-19T06:09:24;-1.51;81.95
51878;SHT31;37911;51.526;11.536;2022-12-19T06:12:28;-1.51;81.48
51878;SHT31;37911;51.526;11.536;2022-12-19T06:15:31;-1.42;81.14
51878;SHT31;37911;51.526;11.536;2022-12-19T06:18:35;-1.42;81.17
51878;SHT31;37911;51.526;11.536;2022-12-19T06:21:38;-1.38;80.92
51878;SHT31;37911;51.526;11.536;2022-12-19T06:24:44;-1.34;80.84
51878;SHT31;37911;51.526;11.536;2022-12-19T06:27:48;-1.35;81.09
51878;SHT31;37911;51.526;11.536;2022-12-19T06:30:51;-1.27;80.77
51878;SHT31;37911;51.526;11.536;2022-12-19T06:33:57;-1.25;80.66
51878;SHT31;37911;51.526;11.536;2022-12-19T06:37:00;-1.25;80.83
51878;SHT31;37911;51.526;11.536;2022-12-19T06:40:08;-1.25;81.12
51878;SHT31;37911;51.526;11.536;2022-12-19T06:43:34;-1.25;81.57
51878;SHT31;37911;51.526;11.536;2022-12-19T06:46:35;-1.27;81.98
51878;SHT31;37911;51.526;11.536;2022-12-19T06:49:39;-1.27;82.36
51878;SHT31;37911;51.526;11.536;2022-12-19T06:52:42;-1.31;82.48
51878;SHT31;37911;51.526;11.536;2022-12-19T06:55:49;-1.25;82.74
51878;SHT31;37911;51.526;11.536;2022-12-19T06:58:53;-1.28;82.98
51878;SHT31;37911;51.526;11.536;2022-12-19T07:02:00;-1.28;83.22
51878;SHT31;37911;51.526;11.536;2022-12-19T07:05:07;-1.27;83.22
51878;SHT31;37911;51.526;11.536;2022-12-19T07:08:11;-1.27;83.33
51878;SHT31;37911;51.526;11.536;2022-12-19T07:11:17;-1.19;83.53
51878;SHT31;37911;51.526;11.536;2022-12-19T07:14:21;-1.21;83.67
51878;SHT31;37911;51.526;11.536;2022-12-19T07:17:25;-1.18;84.01
51878;SHT31;37911;51.526;11.536;2022-12-19T07:20:29;-1.09;84.19
51878;SHT31;37911;51.526;11.536;2022-12-19T07:23:36;-1.04;84.37
51878;SHT31;37911;51.526;11.536;2022-12-19T07:26:43;-0.94;85.09
51878;SHT31;37911;51.526;11.536;2022-12-19T07:29:47;-0.85;85.34
51878;SHT31;37911;51.526;11.536;2022-12-19T07:32:50;-0.81;85.35
51878;SHT31;37911;51.526;11.536;2022-12-19T07:35:54;-0.73;85.30
51878;SHT31;37911;51.526;11.536;2022-12-19T07:38:57;-0.77;85.27
51878;SHT31;37911;51.526;11.536;2022-12-19T07:42:03;-0.66;85.17
51878;SHT31;37911;51.526;11.536;2022-12-19T07:45:12;-0.60;84.91
51878;SHT31;37911;51.526;11.536;2022-12-19T07:48:18;-0.54;84.57
51878;SHT31;37911;51.526;11.536;2022-12-19T07:51:22;-0.44;84.06
51878;SHT31;37911;51.526;11.536;2022-12-19T07:54:25;-0.40;84.22
51878;SHT31;37911;51.526;11.536;2022-12-19T07:57:32;-0.36;84.26
51878;SHT31;37911;51.526;11.536;2022-12-19T08:00:35;-0.22;83.67
51878;SHT31;37911;51.526;11.536;2022-12-19T08:03:39;-0.22;84.01
51878;SHT31;37911;51.526;11.536;2022-12-19T08:06:42;-0.15;84.08
51878;SHT31;37911;51.526;11.536;2022-12-19T08:09:46;-0.17;84.34
51878;SHT31;37911;51.526;11.536;2022-12-19T08:12:53;0.02;84.05
51878;SHT31;37911;51.526;11.536;2022-12-19T08:15:58;0.04;83.99
51878;SHT31;37911;51.526;11.536;2022-12-19T08:19:02;0.06;84.24
51878;SHT31;37911;51.526;11.536;2022-12-19T08:22:05;0.02;84.66
51878;SHT31;37911;51.526;11.536;2022-12-19T08:25:09;0.06;84.96
51878;SHT31;37911;51.526;11.536;2022-12-19T08:28:15;0.08;84.34
51878;SHT31;37911;51.526;11.536;2022-12-19T08:31:19;0.09;84.58
51878;SHT31;37911;51.526;11.536;2022-12-19T08:34:24;0.08;84.99
51878;SHT31;37911;51.526;11.536;2022-12-19T08:37:27;0.02;85.45
51878;SHT31;37911;51.526;11.536;2022-12-19T08:40:32;0.02;86.27
51878;SHT31;37911;51.526;11.536;2022-12-19T08:43:38;0.05;86.44
51878;SHT31;37911;51.526;11.536;2022-12-19T08:46:54;0.05;86.51
51878;SHT31;37911;51.526;11.536;2022-12-19T08:49:57;0.09;86.45
51878;SHT31;37911;51.526;11.536;2022-12-19T08:53:01;0.09;86.42
51878;SHT31;37911;51.526;11.536;2022-12-19T08:56:06;0.04;86.76
51878;SHT31;37911;51.526;11.536;2022-12-19T08:59:15;0.05;86.80
51878;SHT31;37911;51.526;11.536;2022-12-19T09:02:20;0.08;86.80
51878;SHT31;37911;51.526;11.536;2022-12-19T09:05:23;0.11;87.54
51878;SHT31;37911;51.526;11.536;2022-12-19T09:08:28;0.12;87.07
51878;SHT31;37911;51.526;11.536;2022-12-19T09:11:32;0.09;87.33
51878;SHT31;37911;51.526;11.536;2022-12-19T09:14:38;0.15;87.84
51878;SHT31;37911;51.526;11.536;2022-12-19T09:17:41;0.09;88.01
51878;SHT31;37911;51.526;11.536;2022-12-19T09:20:45;0.08;88.24
51878;SHT31;37911;51.526;11.536;2022-12-19T09:23:52;0.12;88.55
51878;SHT31;37911;51.526;11.536;2022-12-19T09:26:55;0.15;88.72
51878;SHT31;37911;51.526;11.536;2022-12-19T09:30:01;0.15;89.08
51878;SHT31;37911;51.526;11.536;2022-12-19T09:33:05;0.11;89.19
51878;SHT31;37911;51.526;11.536;2022-12-19T09:36:11;0.11;89.53
51878;SHT31;37911;51.526;11.536;2022-12-19T09:39:16;0.06;89.63
51878;SHT31;37911;51.526;11.536;2022-12-19T09:42:27;0.08;89.64
51878;SHT31;37911;51.526;11.536;2022-12-19T09:45:47;0.09;89.55
51878;SHT31;37911;51.526;11.536;2022-12-19T09:48:55;0.09;89.27
51878;SHT31;37911;51.526;11.536;2022-12-19T09:52:03;0.14;89.18
51878;SHT31;37911;51.526;11.536;2022-12-19T09:55:16;0.12;89.30
51878;SHT31;37911;51.526;11.536;2022-12-19T09:58:30;0.14;89.53
51878;SHT31;37911;51.526;11.536;2022-12-19T10:01:48;0.12;89.50
51878;SHT31;37911;51.526;11.536;2022-12-19T10:05:01;0.19;89.46
51878;SHT31;37911;51.526;11.536;2022-12-19T10:08:15;0.30;89.42
51878;SHT31;37911;51.526;11.536;2022-12-19T10:11:38;0.28;89.43
51878;SHT31;37911;51.526;11.536;2022-12-19T10:14:55;0.33;89.63
51878;SHT31;37911;51.526;11.536;2022-12-19T10:18:28;0.29;89.89
51878;SHT31;37911;51.526;11.536;2022-12-19T10:21:39;0.38;89.98
51878;SHT31;37911;51.526;11.536;2022-12-19T10:25:03;0.38;89.97
51878;SHT31;37911;51.526;11.536;2022-12-19T10:28:18;0.45;89.90
51878;SHT31;37911;51.526;11.536;2022-12-19T10:31:29;0.46;90.01
51878;SHT31;37911;51.526;11.536;2022-12-19T10:34:44;0.44;90.17
51878;SHT31;37911;51.526;11.536;2022-12-19T10:37:52;0.45;90.32
51878;SHT31;37911;51.526;11.536;2022-12-19T10:41:09;0.44;90.24
51878;SHT31;37911;51.526;11.536;2022-12-19T10:44:17;0.49;90.17
51878;SHT31;37911;51.526;11.536;2022-12-19T10:47:21;0.49;90.26
51878;SHT31;37911;51.526;11.536;2022-12-19T10:50:28;0.46;90.24
51878;SHT31;37911;51.526;11.536;2022-12-19T10:53:32;0.50;90.18
51878;SHT31;37911;51.526;11.536;2022-12-19T10:56:35;0.52;90.25
51878;SHT31;37911;51.526;11.536;2022-12-19T10:59:53;0.55;90.46
51878;SHT31;37911;51.526;11.536;2022-12-19T11:03:07;0.60;90.33
51878;SHT31;37911;51.526;11.536;2022-12-19T11:06:42;0.73;90.39
51878;SHT31;37911;51.526;11.536;2022-12-19T11:09:46;0.72;90.47
51878;SHT31;37911;51.526;11.536;2022-12-19T11:12:51;0.69;90.55
51878;SHT31;37911;51.526;11.536;2022-12-19T11:15:56;0.80;90.75
51878;SHT31;37911;51.526;11.536;2022-12-19T11:18:59;0.86;90.72
51878;SHT31;37911;51.526;11.536;2022-12-19T11:22:15;0.91;90.77
51878;SHT31;37911;51.526;11.536;2022-12-19T11:25:32;1.03;90.35
51878;SHT31;37911;51.526;11.536;2022-12-19T11:28:38;1.19;90.34
51878;SHT31;37911;51.526;11.536;2022-12-19T11:31:42;1.23;89.79
51878;SHT31;37911;51.526;11.536;2022-12-19T11:34:48;1.27;89.78
51878;SHT31;37911;51.526;11.536;2022-12-19T11:37:56;1.33;89.44
51878;SHT31;37911;51.526;11.536;2022-12-19T11:41:07;1.31;89.50
51878;SHT31;37911;51.526;11.536;2022-12-19T11:44:21;1.30;89.53
51878;SHT31;37911;51.526;11.536;2022-12-19T11:47:34;1.23;89.82
51878;SHT31;37911;51.526;11.536;2022-12-19T11:50:48;1.20;89.99
51878;SHT31;37911;51.526;11.536;2022-12-19T11:54:03;1.21;90.00
51878;SHT31;37911;51.526;11.536;2022-12-19T11:57:10;1.20;90.07
51878;SHT31;37911;51.526;11.536;2022-12-19T12:00:17;1.27;89.98
51878;SHT31;37911;51.526;11.536;2022-12-19T12:03:42;1.23;90.18
51878;SHT31;37911;51.526;11.536;2022-12-19T12:06:51;1.27;90.11
51878;SHT31;37911;51.526;11.536;2022-12-19T12:10:02;1.41;89.79
51878;SHT31;37911;51.526;11.536;2022-12-19T12:13:13;1.31;89.82
51878;SHT31;37911;51.526;11.536;2022-12-19T12:16:23;1.28;90.00
51878;SHT31;37911;51.526;11.536;2022-12-19T12:19:40;1.30;90.16
51878;SHT31;37911;51.526;11.536;2022-12-19T12:22:57;1.33;90.15
51878;SHT31;37911;51.526;11.536;2022-12-19T12:26:11;1.24;90.26
51878;SHT31;37911;51.526;11.536;2022-12-19T12:29:19;1.26;90.50
51878;SHT31;37911;51.526;11.536;2022-12-19T12:32:40;1.24;90.50
51878;SHT31;37911;51.526;11.536;2022-12-19T12:35:49;1.30;90.45
51878;SHT31;37911;51.526;11.536;2022-12-19T12:39:02;1.23;90.61
51878;SHT31;37911;51.526;11.536;2022-12-19T12:42:17;1.31;90.60
51878;SHT31;37911;51.526;11.536;2022-12-19T12:45:26;1.34;90.44
51878;SHT31;37911;51.526;11.536;2022-12-19T12:48:34;1.40;90.39
51878;SHT31;37911;51.526;11.536;2022-12-19T12:51:38;1.35;90.54
51878;SHT31;37911;51.526;11.536;2022-12-19T12:54:44;1.40;90.27
51878;SHT31;37911;51.526;11.536;2022-12-19T12:57:51;1.35;90.34
51878;SHT31;37911;51.526;11.536;2022-12-19T13:01:08;1.38;90.36
51878;SHT31;37911;51.526;11.536;2022-12-19T13:04:20;1.40;90.42
51878;SHT31;37911;51.526;11.536;2022-12-19T13:07:32;1.34;90.50
51878;SHT31;37911;51.526;11.536;2022-12-19T13:10:37;1.28;90.64
51878;SHT31;37911;51.526;11.536;2022-12-19T13:13:54;1.26;90.79
51878;SHT31;37911;51.526;11.536;2022-12-19T13:16:58;1.34;90.97
51878;SHT31;37911;51.526;11.536;2022-12-19T13:20:40;1.35;90.85
51878;SHT31;37911;51.526;11.536;2022-12-19T13:23:45;1.33;90.96
51878;SHT31;37911;51.526;11.536;2022-12-19T13:26:50;1.30;91.13
51878;SHT31;37911;51.526;11.536;2022-12-19T13:30:02;1.41;91.19
51878;SHT31;37911;51.526;11.536;2022-12-19T13:33:09;1.51;90.90
51878;SHT31;37911;51.526;11.536;2022-12-19T13:40:24;1.45;90.68
51878;SHT31;37911;51.526;11.536;2022-12-19T13:43:33;1.38;90.82
51878;SHT31;37911;51.526;11.536;2022-12-19T13:46:47;1.47;91.02
51878;SHT31;37911;51.526;11.536;2022-12-19T13:49:51;1.51;90.98
51878;SHT31;37911;51.526;11.536;2022-12-19T13:52:54;1.58;91.22
51878;SHT31;37911;51.526;11.536;2022-12-19T13:56:03;1.59;91.03
51878;SHT31;37911;51.526;11.536;2022-12-19T13:59:08;1.55;91.04
51878;SHT31;37911;51.526;11.536;2022-12-19T14:02:16;1.61;91.06
51878;SHT31;37911;51.526;11.536;2022-12-19T14:05:23;1.52;90.95
51878;SHT31;37911;51.526;11.536;2022-12-19T14:08:27;1.50;90.89
51878;SHT31;37911;51.526;11.536;2022-12-19T14:11:39;1.43;90.95
51878;SHT31;37911;51.526;11.536;2022-12-19T14:14:50;1.40;91.11
51878;SHT31;37911;51.526;11.536;2022-12-19T14:18:19;1.38;91.24
51878;SHT31;37911;51.526;11.536;2022-12-19T14:21:24;1.37;91.40
51878;SHT31;37911;51.526;11.536;2022-12-19T14:24:30;1.30;91.53
51878;SHT31;37911;51.526;11.536;2022-12-19T14:27:39;1.31;91.81
51878;SHT31;37911;51.526;11.536;2022-12-19T14:30:47;1.30;91.76
51878;SHT31;37911;51.526;11.536;2022-12-19T14:33:54;1.28;91.88
51878;SHT31;37911;51.526;11.536;2022-12-19T14:36:58;1.41;91.92
51878;SHT31;37911;51.526;11.536;2022-12-19T14:40:06;1.52;91.69
51878;SHT31;37911;51.526;11.536;2022-12-19T14:43:16;1.45;91.73
51878;SHT31;37911;51.526;11.536;2022-12-19T14:46:37;1.41;91.74
51878;SHT31;37911;51.526;11.536;2022-12-19T14:49:40;1.44;91.73
51878;SHT31;37911;51.526;11.536;2022-12-19T14:52:44;1.58;91.75
51878;SHT31;37911;51.526;11.536;2022-12-19T14:56:01;1.62;91.47
51878;SHT31;37911;51.526;11.536;2022-12-19T14:59:20;1.61;91.60
51878;SHT31;37911;51.526;11.536;2022-12-19T15:02:27;1.59;91.53
51878;SHT31;37911;51.526;11.536;2022-12-19T15:05:33;1.59;91.68
51878;SHT31;37911;51.526;11.536;2022-12-19T15:08:37;1.56;91.85
51878;SHT31;37911;51.526;11.536;2022-12-19T15:11:43;1.64;91.93
51878;SHT31;37911;51.526;11.536;2022-12-19T15:15:16;1.78;92.10
51878;SHT31;37911;51.526;11.536;2022-12-19T15:18:25;1.83;92.14
51878;SHT31;37911;51.526;11.536;2022-12-19T15:21:29;1.85;92.10
51878;SHT31;37911;51.526;11.536;2022-12-19T15:24:33;1.96;91.97
51878;SHT31;37911;51.526;11.536;2022-12-19T15:27:36;2.03;91.93
51878;SHT31;37911;51.526;11.536;2022-12-19T15:30:43;1.98;91.85
51878;SHT31;37911;51.526;11.536;2022-12-19T15:33:48;1.94;92.02
51878;SHT31;37911;51.526;11.536;2022-12-19T15:36:53;1.91;91.96
51878;SHT31;37911;51.526;11.536;2022-12-19T15:39:57;1.92;91.94
51878;SHT31;37911;51.526;11.536;2022-12-19T15:43:00;1.96;92.15
51878;SHT31;37911;51.526;11.536;2022-12-19T15:46:08;1.94;92.08
51878;SHT31;37911;51.526;11.536;2022-12-19T15:49:14;1.94;92.20
51878;SHT31;37911;51.526;11.536;2022-12-19T15:52:19;1.98;92.37
51878;SHT31;37911;51.526;11.536;2022-12-19T15:55:27;1.99;92.42
51878;SHT31;37911;51.526;11.536;2022-12-19T15:58:31;1.94;92.39
51878;SHT31;37911;51.526;11.536;2022-12-19T16:01:37;1.92;92.42
51878;SHT31;37911;51.526;11.536;2022-12-19T16:04:41;2.13;92.35
51878;SHT31;37911;51.526;11.536;2022-12-19T16:07:45;2.20;92.10
51878;SHT31;37911;51.526;11.536;2022-12-19T16:10:51;2.12;92.09
51878;SHT31;37911;51.526;11.536;2022-12-19T16:13:57;2.01;92.24
51878;SHT31;37911;51.526;11.536;2022-12-19T16:17:03;2.06;92.37
51878;SHT31;37911;51.526;11.536;2022-12-19T16:20:20;1.99;92.34
51878;SHT31;37911;51.526;11.536;2022-12-19T16:23:23;2.01;92.39
51878;SHT31;37911;51.526;11.536;2022-12-19T16:26:30;2.07;92.43
51878;SHT31;37911;51.526;11.536;2022-12-19T16:29:34;2.01;92.53
51878;SHT31;37911;51.526;11.536;2022-12-19T16:32:40;2.02;92.58
51878;SHT31;37911;51.526;11.536;2022-12-19T16:35:43;1.98;92.50
51878;SHT31;37911;51.526;11.536;2022-12-19T16:38:47;1.94;92.56
51878;SHT31;37911;51.526;11.536;2022-12-19T16:41:50;1.85;92.63
51878;SHT31;37911;51.526;11.536;2022-12-19T16:44:54;1.85;92.86
51878;SHT31;37911;51.526;11.536;2022-12-19T16:48:00;1.85;92.82
51878;SHT31;37911;51.526;11.536;2022-12-19T16:51:03;1.99;92.73
51878;SHT31;37911;51.526;11.536;2022-12-19T16:54:08;2.01;92.53
51878;SHT31;37911;51.526;11.536;2022-12-19T16:57:17;2.05;92.45
51878;SHT31;37911;51.526;11.536;2022-12-19T17:00:22;2.09;92.37
51878;SHT31;37911;51.526;11.536;2022-12-19T17:03:31;1.98;92.55
51878;SHT31;37911;51.526;11.536;2022-12-19T17:06:36;2.12;92.66
51878;SHT31;37911;51.526;11.536;2022-12-19T17:09:40;2.07;92.53
51878;SHT31;37911;51.526;11.536;2022-12-19T17:12:44;2.09;92.54
51878;SHT31;37911;51.526;11.536;2022-12-19T17:15:48;2.15;92.47
51878;SHT31;37911;51.526;11.536;2022-12-19T17:18:56;2.27;92.53
51878;SHT31;37911;51.526;11.536;2022-12-19T17:22:00;2.37;92.37
51878;SHT31;37911;51.526;11.536;2022-12-19T17:25:15;2.43;92.20
51878;SHT31;37911;51.526;11.536;2022-12-19T17:28:20;2.46;92.11
51878;SHT31;37911;51.526;11.536;2022-12-19T17:31:26;2.37;92.20
51878;SHT31;37911;51.526;11.536;2022-12-19T17:34:39;2.36;92.23
51878;SHT31;37911;51.526;11.536;2022-12-19T17:37:46;2.39;92.16
51878;SHT31;37911;51.526;11.536;2022-12-19T17:40:52;2.27;92.08
51878;SHT31;37911;51.526;11.536;2022-12-19T17:43:55;2.15;92.17
51878;SHT31;37911;51.526;11.536;2022-12-19T17:46:59;2.02;92.24
51878;SHT31;37911;51.526;11.536;2022-12-19T17:50:06;1.99;92.38
51878;SHT31;37911;51.526;11.536;2022-12-19T17:53:14;1.98;92.60
51878;SHT31;37911;51.526;11.536;2022-12-19T17:56:18;2.07;92.66
51878;SHT31;37911;51.526;11.536;2022-12-19T17:59:22;2.10;92.73
51878;SHT31;37911;51.526;11.536;2022-12-19T18:02:26;2.17;92.70
51878;SHT31;37911;51.526;11.536;2022-12-19T18:05:34;2.56;91.89
51878;SHT31;37911;51.526;11.536;2022-12-19T18:08:38;2.44;92.13
51878;SHT31;37911;51.526;11.536;2022-12-19T18:11:42;2.41;92.08
51878;SHT31;37911;51.526;11.536;2022-12-19T18:14:45;2.46;91.78
51878;SHT31;37911;51.526;11.536;2022-12-19T18:17:50;2.51;91.70
51878;SHT31;37911;51.526;11.536;2022-12-19T18:20:57;2.43;91.61
51878;SHT31;37911;51.526;11.536;2022-12-19T18:24:01;2.44;91.54
51878;SHT31;37911;51.526;11.536;2022-12-19T18:27:04;2.39;91.63
51878;SHT31;37911;51.526;11.536;2022-12-19T18:30:09;2.29;91.72
51878;SHT31;37911;51.526;11.536;2022-12-19T18:33:18;2.22;91.85
51878;SHT31;37911;51.526;11.536;2022-12-19T18:36:26;2.13;91.85
51878;SHT31;37911;51.526;11.536;2022-12-19T18:39:30;2.09;92.01
51878;SHT31;37911;51.526;11.536;2022-12-19T18:42:34;2.05;92.09
51878;SHT31;37911;51.526;11.536;2022-12-19T18:45:39;2.02;92.16
51878;SHT31;37911;51.526;11.536;2022-12-19T18:48:44;1.96;92.26
51878;SHT31;37911;51.526;11.536;2022-12-19T18:51:50;1.94;92.43
51878;SHT31;37911;51.526;11.536;2022-12-19T18:54:54;1.91;92.58
51878;SHT31;37911;51.526;11.536;2022-12-19T18:57:58;2.01;92.71
51878;SHT31;37911;51.526;11.536;2022-12-19T19:01:04;2.13;92.79
51878;SHT31;37911;51.526;11.536;2022-12-19T19:04:08;2.34;92.48
51878;SHT31;37911;51.526;11.536;2022-12-19T19:07:15;2.27;92.53
51878;SHT31;37911;51.526;11.536;2022-12-19T19:10:22;2.46;92.46
51878;SHT31;37911;51.526;11.536;2022-12-19T19:13:52;2.67;91.65
51878;SHT31;37911;51.526;11.536;2022-12-19T19:16:56;2.90;90.92
51878;SHT31;37911;51.526;11.536;2022-12-19T19:20:00;2.88;90.27
51878;SHT31;37911;51.526;11.536;2022-12-19T19:23:09;2.91;90.16
51878;SHT31;37911;51.526;11.536;2022-12-19T19:26:13;2.97;89.78
51878;SHT31;37911;51.526;11.536;2022-12-19T19:29:16;2.88;89.57
51878;SHT31;37911;51.526;11.536;2022-12-19T19:32:21;2.87;89.51
51878;SHT31;37911;51.526;11.536;2022-12-19T19:35:25;3.02;89.10
51878;SHT31;37911;51.526;11.536;2022-12-19T19:38:31;3.02;88.79
51878;SHT31;37911;51.526;11.536;2022-12-19T19:41:35;3.11;88.51